Time;durP1;ratioP1;P1;durP2;ratioP2;P2;SDS_P1;SDS_P2;PMS_P1;PMS_P2;Temp;Humidity;BMP_temperature;BMP_pressure;BME280_temperature;BME280_humidity;BME280_pressure;Samples;Min_cycle;Max_cycle;Signal;HPM_P1;HPM_P2
2023/03/15 00:01:49;;;;;;;0.30;0.30;;;;;;;3.66;74.65;100637.72;5157762;28;20031;-80
2023/03/15 00:04:20;;;;;;;0.30;0.30;;;;;;;3.43;76.97;100638.59;5133870;28;20045;-81
2023/03/15 00:06:51;;;;;;;0.30;0.30;;;;;;;3.58;76.23;100640.34;5165300;28;20445;-80
2023/03/15 00:09:23;;;;;;;0.65;0.65;;;;;;;3.51;76.68;100633.41;5150201;28;20440;-80
2023/03/15 00:11:53;;;;;;;0.40;0.40;;;;;;;3.66;75.74;100633.41;5117657;28;20642;-80
2023/03/15 00:14:23;;;;;;;0.65;0.65;;;;;;;3.70;76.54;100639.47;5149175;28;20066;-80
2023/03/15 00:16:54;;;;;;;0.43;0.43;;;;;;;3.88;75.70;100642.06;5127238;28;20054;-81
2023/03/15 00:19:24;;;;;;;0.40;0.40;;;;;;;3.82;75.79;100636.00;5130130;28;20062;-81
2023/03/15 00:21:55;;;;;;;0.43;0.43;;;;;;;3.84;76.21;100642.06;5170392;28;20038;-80
2023/03/15 00:24:25;;;;;;;0.30;0.30;;;;;;;3.66;78.12;100643.81;5149701;28;20030;-80
2023/03/15 00:26:56;;;;;;;0.40;0.40;;;;;;;3.70;77.68;100649.84;5162974;28;20023;-80
2023/03/15 00:29:26;;;;;;;0.75;0.75;;;;;;;3.58;78.35;100641.19;5165141;28;20125;-80
2023/03/15 00:31:57;;;;;;;0.95;0.95;;;;;;;3.53;78.97;100642.94;5128439;28;20018;-80
2023/03/15 00:34:28;;;;;;;0.50;0.50;;;;;;;3.73;77.96;100652.44;5123947;28;20438;-80
2023/03/15 00:36:58;;;;;;;0.43;0.43;;;;;;;3.76;77.81;100653.28;5141939;28;20084;-79
2023/03/15 00:39:29;;;;;;;0.80;0.80;;;;;;;3.85;76.40;100659.34;5140253;28;20035;-80
2023/03/15 00:41:59;;;;;;;0.60;0.60;;;;;;;3.73;77.86;100658.50;5140276;28;20022;-79
2023/03/15 00:44:31;;;;;;;0.30;0.30;;;;;;;3.75;78.20;100658.50;5159876;28;20144;-80
2023/03/15 00:47:01;;;;;;;0.45;0.45;;;;;;;3.67;78.48;100660.22;5145494;28;20710;-80
2023/03/15 00:49:32;;;;;;;1.05;1.05;;;;;;;3.68;78.71;100665.41;5123624;28;20041;-80
2023/03/15 00:52:03;;;;;;;2.67;1.05;;;;;;;3.80;78.07;100676.66;5144216;28;20054;-80
2023/03/15 00:54:34;;;;;;;0.40;0.40;;;;;;;3.82;78.05;100674.94;5126962;28;20045;-80
2023/03/15 00:57:05;;;;;;;0.35;0.35;;;;;;;3.66;78.76;100677.53;5126835;28;20054;-79
2023/03/15 00:59:35;;;;;;;1.27;1.15;;;;;;;3.77;78.52;100678.38;5147704;28;20062;-81
2023/03/15 01:02:06;;;;;;;0.65;0.65;;;;;;;3.83;78.73;100676.69;5124706;28;20097;-79
2023/03/15 01:04:37;;;;;;;0.55;0.55;;;;;;;3.71;79.35;100673.19;5125241;28;20724;-79
2023/03/15 01:07:07;;;;;;;0.55;0.55;;;;;;;3.77;79.34;100680.13;5141403;28;20086;-81
2023/03/15 01:09:38;;;;;;;0.32;0.32;;;;;;;3.55;79.89;100677.53;5123854;28;20031;-79
2023/03/15 01:12:08;;;;;;;0.43;0.43;;;;;;;3.47;80.28;100669.72;5127513;28;20486;-80
2023/03/15 01:14:39;;;;;;;0.73;0.73;;;;;;;3.44;80.62;100671.44;5138766;28;20034;-79
2023/03/15 01:17:09;;;;;;;1.10;1.10;;;;;;;3.46;80.67;100668.00;5129036;28;20042;-79
2023/03/15 01:19:40;;;;;;;2.72;1.77;;;;;;;3.36;81.80;100674.00;5126856;28;20078;-79
2023/03/15 01:22:10;;;;;;;0.55;0.55;;;;;;;3.25;81.64;100678.34;5132395;28;20031;-79
2023/03/15 01:24:41;;;;;;;1.48;1.38;;;;;;;3.27;81.95;100677.47;5143023;28;20030;-80
2023/03/15 01:27:11;;;;;;;0.68;0.68;;;;;;;3.24;82.22;100686.97;5128857;28;20030;-79
2023/03/15 01:29:42;;;;;;;0.40;0.40;;;;;;;3.26;82.38;100695.63;5141724;28;21715;-79
2023/03/15 01:32:16;;;;;;;0.30;0.30;;;;;;;3.27;82.23;100702.53;5130437;28;20505;-80
2023/03/15 01:34:46;;;;;;;0.50;0.50;;;;;;;3.20;82.74;100700.78;5138396;28;20074;-80
2023/03/15 01:37:17;;;;;;;0.30;0.30;;;;;;;3.17;82.33;100703.38;5135387;28;20509;-80
2023/03/15 01:39:47;;;;;;;0.63;0.63;;;;;;;3.17;82.62;100711.16;5123339;28;20047;-80
2023/03/15 01:42:18;;;;;;;0.50;0.50;;;;;;;3.12;83.50;100714.59;5144661;28;20039;-78
2023/03/15 01:45:00;;;;;;;0.40;0.40;;;;;;;3.28;81.80;100712.03;5154357;28;20458;-79
2023/03/15 01:47:31;;;;;;;1.55;1.45;;;;;;;3.21;82.63;100718.97;5121611;28;20030;-79
2023/03/15 01:50:07;;;;;;;0.40;0.40;;;;;;;3.06;82.87;100719.75;5154697;28;20048;-79
2023/03/15 01:52:41;;;;;;;0.32;0.32;;;;;;;3.01;83.10;100726.66;5141316;28;20118;-80
2023/03/15 01:55:15;;;;;;;0.40;0.40;;;;;;;2.87;83.08;100717.94;5136920;28;20067;-80
2023/03/15 01:57:54;;;;;;;1.60;1.50;;;;;;;2.75;83.89;100717.03;5141088;28;20397;-79
2023/03/15 02:00:25;;;;;;;1.00;1.00;;;;;;;2.71;83.97;100717.00;5102360;28;20054;-79
2023/03/15 02:03:02;;;;;;;0.60;0.60;;;;;;;2.51;84.10;100712.56;5146817;28;20359;-79
2023/03/15 02:05:37;;;;;;;0.75;0.75;;;;;;;2.67;83.78;100713.53;5144057;28;20045;-79
2023/03/15 02:08:08;;;;;;;1.20;1.10;;;;;;;2.54;83.96;100714.31;5148247;28;20045;-78
2023/03/15 02:10:55;;;;;;;0.40;0.40;;;;;;;2.50;84.35;100714.31;5127320;28;20034;-79
2023/03/15 02:13:28;;;;;;;0.50;0.50;;;;;;;2.44;84.54;100722.03;5113229;28;20991;-78
2023/03/15 02:15:59;;;;;;;0.77;0.77;;;;;;;2.47;85.01;100714.28;5163504;28;20038;-79
2023/03/15 02:18:29;;;;;;;0.35;0.35;;;;;;;2.42;84.90;100716.00;5143159;28;20037;-78
2023/03/15 02:21:32;;;;;;;0.40;0.40;;;;;;;2.32;85.13;100715.03;5131636;28;20038;-79
2023/03/15 02:24:14;;;;;;;0.30;0.30;;;;;;;2.22;84.60;100720.16;5131601;28;20417;-79
2023/03/15 02:26:51;;;;;;;0.35;0.35;;;;;;;2.00;85.82;100717.41;5112384;28;20043;-80
2023/03/15 02:29:27;;;;;;;0.30;0.30;;;;;;;2.22;84.52;100717.56;5133037;28;20721;-80
2023/03/15 02:31:59;;;;;;;0.40;0.40;;;;;;;2.07;85.17;100714.00;5127928;28;20130;-80
2023/03/15 02:34:30;;;;;;;0.40;0.40;;;;;;;2.10;84.88;100718.34;5144117;28;20468;-80
2023/03/15 02:37:01;;;;;;;0.35;0.35;;;;;;;2.18;85.68;100720.16;5145342;28;20034;-80
2023/03/15 02:39:31;;;;;;;1.00;1.00;;;;;;;2.20;85.46;100717.56;5151350;28;20416;-80
2023/03/15 02:42:02;;;;;;;0.52;0.52;;;;;;;2.15;85.61;100720.09;5138410;28;20019;-80
2023/03/15 02:44:36;;;;;;;0.40;0.40;;;;;;;2.10;86.35;100711.47;5125334;28;20085;-80
2023/03/15 02:47:12;;;;;;;0.63;0.63;;;;;;;2.27;85.59;100721.91;5163828;28;20689;-80
2023/03/15 02:49:45;;;;;;;0.60;0.60;;;;;;;2.13;85.91;100718.38;5131345;28;20078;-80
2023/03/15 02:52:16;;;;;;;0.43;0.43;;;;;;;2.01;86.15;100720.00;5149337;28;20117;-80
2023/03/15 02:54:46;;;;;;;0.40;0.40;;;;;;;2.16;86.17;100724.44;5128342;28;20689;-79
2023/03/15 02:57:18;;;;;;;0.38;0.38;;;;;;;2.24;85.76;100732.25;5143294;28;20125;-80
2023/03/15 02:59:49;;;;;;;0.40;0.40;;;;;;;2.46;84.03;100727.22;5145606;28;20042;-80
2023/03/15 03:02:20;;;;;;;0.30;0.30;;;;;;;2.49;83.86;100733.28;5132413;28;20113;-80
2023/03/15 03:04:51;;;;;;;0.60;0.60;;;;;;;2.62;83.44;100743.72;5130213;28;20117;-80
2023/03/15 03:07:21;;;;;;;0.40;0.40;;;;;;;2.35;84.42;100746.16;5123640;28;20215;-80
2023/03/15 03:09:52;;;;;;;0.73;0.73;;;;;;;2.31;85.50;100749.59;5145710;28;20098;-80
2023/03/15 03:12:22;;;;;;;0.98;0.98;;;;;;;2.47;84.92;100754.88;5145843;28;20031;-80
2023/03/15 03:14:55;;;;;;;0.30;0.30;;;;;;;2.38;85.14;100763.41;5124638;28;20047;-80
2023/03/15 03:17:25;;;;;;;0.40;0.40;;;;;;;2.52;84.66;100763.53;5145077;28;20035;-80
2023/03/15 03:19:56;;;;;;;1.15;1.10;;;;;;;2.18;85.85;100763.28;5144042;28;20486;-80
2023/03/15 03:22:27;;;;;;;1.48;1.23;;;;;;;2.22;85.59;100758.97;5143519;28;20489;-80
2023/03/15 03:24:57;;;;;;;0.40;0.40;;;;;;;2.28;85.67;100766.78;5125691;28;20049;-80
2023/03/15 03:27:28;;;;;;;2.70;1.13;;;;;;;2.15;86.64;100769.28;5130584;28;20125;-80
2023/03/15 03:29:58;;;;;;;0.93;0.93;;;;;;;2.29;85.89;100769.41;5125977;28;20069;-80
2023/03/15 03:32:29;;;;;;;0.30;0.30;;;;;;;2.29;85.70;100776.28;5126506;28;20053;-80
2023/03/15 03:34:59;;;;;;;0.40;0.40;;;;;;;2.29;86.13;100777.19;5142661;28;20054;-79
2023/03/15 03:37:30;;;;;;;0.30;0.30;;;;;;;2.16;86.31;100771.03;5132111;28;20517;-80
2023/03/15 03:40:01;;;;;;;0.40;0.40;;;;;;;2.12;87.13;100776.16;5128570;28;20050;-80
2023/03/15 03:42:34;;;;;;;0.50;0.50;;;;;;;2.29;86.17;100786.66;5127769;28;20026;-80
2023/03/15 03:45:06;;;;;;;0.40;0.40;;;;;;;2.35;85.98;100782.41;5132986;28;20035;-80
2023/03/15 03:47:36;;;;;;;0.40;0.40;;;;;;;2.29;86.90;100789.25;5128759;28;20035;-80
2023/03/15 03:50:09;;;;;;;1.98;1.85;;;;;;;2.29;86.86;100786.66;5121250;28;20065;-80
2023/03/15 03:52:42;;;;;;;0.40;0.40;;;;;;;2.45;85.33;100796.28;5131296;28;20027;-80
2023/03/15 03:55:13;;;;;;;0.52;0.52;;;;;;;2.42;85.47;100798.84;5127010;28;20162;-80
2023/03/15 03:57:43;;;;;;;0.40;0.40;;;;;;;2.39;85.13;100806.59;5134730;28;20039;-80
2023/03/15 04:00:14;;;;;;;2.50;1.65;;;;;;;2.55;84.22;100810.19;5145503;28;20046;-80
2023/03/15 04:02:45;;;;;;;0.60;0.60;;;;;;;2.70;83.17;100822.34;5147083;28;20458;-81
2023/03/15 04:05:15;;;;;;;0.35;0.35;;;;;;;2.80;82.04;100823.31;5150980;28;20046;-79
2023/03/15 04:07:45;;;;;;;0.30;0.30;;;;;;;2.91;81.06;100833.75;5162658;28;20042;-80
2023/03/15 04:10:16;;;;;;;0.70;0.70;;;;;;;3.01;80.66;100835.53;5139058;28;20038;-80
2023/03/15 04:12:46;;;;;;;0.35;0.35;;;;;;;2.94;81.02;100846.69;5175733;28;20030;-81
2023/03/15 04:15:17;;;;;;;0.40;0.40;;;;;;;2.95;80.64;100845.84;5165387;28;20046;-81
2023/03/15 04:17:54;;;;;;;0.50;0.50;;;;;;;2.86;80.84;100853.56;5131338;28;20041;-79
2023/03/15 04:20:26;;;;;;;0.50;0.50;;;;;;;2.95;80.27;100851.91;5138158;28;20485;-79
2023/03/15 04:22:56;;;;;;;0.85;0.85;;;;;;;2.70;80.76;100843.09;5122674;28;20027;-79
2023/03/15 04:25:27;;;;;;;0.43;0.43;;;;;;;2.91;80.53;100849.28;5124980;28;20039;-79
2023/03/15 04:27:57;;;;;;;0.30;0.30;;;;;;;2.62;80.79;100844.75;5147214;28;20102;-80
2023/03/15 04:30:28;;;;;;;0.35;0.35;;;;;;;2.62;80.82;100839.56;5146644;28;20057;-80
2023/03/15 04:32:59;;;;;;;0.30;0.30;;;;;;;2.38;82.11;100842.84;5132025;28;20026;-80
2023/03/15 04:35:34;;;;;;;0.88;0.88;;;;;;;2.33;82.39;100847.97;5127663;28;20508;-82
2023/03/15 04:38:05;;;;;;;0.28;0.28;;;;;;;2.52;81.87;100846.41;5130274;28;20038;-80
2023/03/15 04:40:36;;;;;;;0.40;0.40;;;;;;;2.59;81.67;100852.53;5137313;28;20047;-81
2023/03/15 04:43:07;;;;;;;0.40;0.40;;;;;;;2.77;80.01;100846.59;5139469;28;20041;-81
2023/03/15 04:45:38;;;;;;;0.30;0.30;;;;;;;2.57;81.15;100851.63;5122117;28;20194;-81
2023/03/15 04:48:09;;;;;;;0.40;0.40;;;;;;;2.18;83.05;100852.19;5124488;28;20098;-81
2023/03/15 04:50:40;;;;;;;2.72;1.65;;;;;;;2.05;84.12;100847.72;5135192;28;20038;-81
2023/03/15 04:53:10;;;;;;;0.28;0.28;;;;;;;2.22;83.30;100852.19;5129694;28;20034;-81
2023/03/15 04:55:41;;;;;;;0.30;0.30;;;;;;;2.37;83.15;100857.50;5122104;28;20158;-79
2023/03/15 04:58:11;;;;;;;0.30;0.30;;;;;;;2.31;83.09;100854.88;5122479;28;20054;-79
2023/03/15 05:00:42;;;;;;;1.33;1.30;;;;;;;2.44;82.82;100855.84;5124235;28;20053;-80
2023/03/15 05:03:12;;;;;;;0.32;0.32;;;;;;;2.46;82.47;100854.13;5135395;28;20031;-80
2023/03/15 05:05:44;;;;;;;0.30;0.30;;;;;;;2.44;82.63;100856.69;5116773;28;20045;-80
2023/03/15 05:08:14;;;;;;;0.40;0.40;;;;;;;2.32;82.73;100860.03;5106429;28;20054;-81
2023/03/15 05:10:45;;;;;;;0.30;0.30;;;;;;;2.25;83.24;100862.59;5140801;28;20046;-78
2023/03/15 05:13:17;;;;;;;0.85;0.85;;;;;;;2.51;82.18;100870.56;5143691;28;20100;-79
2023/03/15 05:15:48;;;;;;;0.30;0.30;;;;;;;2.48;82.68;100874.00;5136485;28;20050;-81
2023/03/15 05:18:18;;;;;;;0.63;0.63;;;;;;;2.50;82.24;100874.91;5123797;28;20515;-81
2023/03/15 05:20:49;;;;;;;0.40;0.40;;;;;;;2.67;80.82;100880.22;5130486;28;20038;-81
2023/03/15 05:23:22;;;;;;;0.30;0.30;;;;;;;2.46;82.10;100887.81;5139491;28;20426;-81
2023/03/15 05:25:54;;;;;;;0.30;0.30;;;;;;;2.30;82.67;100904.91;5125821;28;20038;-79
2023/03/15 05:28:25;;;;;;;0.30;0.30;;;;;;;2.41;82.43;100908.47;5117862;28;20027;-81
2023/03/15 05:30:56;;;;;;;0.30;0.30;;;;;;;2.43;82.20;100911.97;5121740;28;20536;-81
2023/03/15 05:33:26;;;;;;;0.55;0.55;;;;;;;2.33;83.00;100920.50;5138907;28;20119;-80
2023/03/15 05:35:58;;;;;;;0.50;0.50;;;;;;;2.52;81.30;100918.94;5159904;28;20601;-80
2023/03/15 05:38:28;;;;;;;0.88;0.88;;;;;;;2.47;82.19;100921.47;5145726;28;20049;-80
2023/03/15 05:41:00;;;;;;;0.35;0.35;;;;;;;2.66;80.61;100926.84;5150502;28;20042;-81
2023/03/15 05:43:31;;;;;;;0.40;0.40;;;;;;;2.74;80.16;100930.38;5149145;28;20753;-81
2023/03/15 05:46:01;;;;;;;0.40;0.40;;;;;;;2.77;80.19;100938.16;5133360;28;20129;-83
2023/03/15 05:48:31;;;;;;;1.85;1.60;;;;;;;2.79;80.21;100938.19;5145584;28;20173;-81
2023/03/15 05:51:02;;;;;;;0.50;0.50;;;;;;;2.82;79.05;100944.25;5133250;28;20047;-81
2023/03/15 05:53:33;;;;;;;0.40;0.40;;;;;;;2.88;80.49;100952.94;5131323;28;20027;-81
2023/03/15 05:56:03;;;;;;;1.85;1.20;;;;;;;2.81;80.16;100960.66;5149501;28;20034;-82
2023/03/15 05:58:34;;;;;;;0.30;0.30;;;;;;;2.77;80.58;100958.03;5161580;28;20085;-81
2023/03/15 06:01:04;;;;;;;1.33;1.15;;;;;;;2.76;81.08;100962.34;5133320;28;20179;-81
2023/03/15 06:03:35;;;;;;;0.30;0.30;;;;;;;2.94;80.02;100964.22;5133710;28;20296;-81
2023/03/15 06:06:05;;;;;;;0.63;0.63;;;;;;;2.95;79.88;100970.25;5131740;28;20050;-81
2023/03/15 06:08:36;;;;;;;0.40;0.40;;;;;;;2.86;80.62;100970.19;5144804;28;20091;-80
2023/03/15 06:11:06;;;;;;;0.93;0.93;;;;;;;2.90;80.03;100982.31;5144928;28;20101;-79
2023/03/15 06:13:37;;;;;;;0.70;0.70;;;;;;;2.98;80.05;100981.53;5127421;28;20052;-79
2023/03/15 06:16:07;;;;;;;0.40;0.40;;;;;;;2.87;80.68;100982.28;5126762;28;20053;-79
2023/03/15 06:18:38;;;;;;;0.30;0.30;;;;;;;2.42;83.01;100985.34;5118012;28;20058;-80
2023/03/15 06:21:09;;;;;;;0.45;0.45;;;;;;;2.48;82.92;100976.75;5114370;28;20117;-79
2023/03/15 06:23:39;;;;;;;1.38;1.27;;;;;;;2.68;82.47;100982.13;5129594;28;20109;-80
2023/03/15 06:26:10;;;;;;;0.85;0.85;;;;;;;2.61;82.34;100983.78;5113918;28;20050;-79
2023/03/15 06:28:40;;;;;;;1.00;1.00;;;;;;;2.81;81.38;100986.56;5125388;28;20059;-79
2023/03/15 06:31:13;;;;;;;0.80;0.80;;;;;;;2.88;80.60;100999.56;5110816;28;20120;-79
2023/03/15 06:33:43;;;;;;;0.40;0.40;;;;;;;2.99;79.74;101003.16;5130885;28;20029;-79
2023/03/15 06:36:14;;;;;;;0.60;0.60;;;;;;;2.72;81.87;101009.81;5131046;28;20039;-79
2023/03/15 06:38:44;;;;;;;1.27;1.20;;;;;;;2.86;81.15;101003.88;5125740;28;20038;-79
2023/03/15 06:41:16;;;;;;;0.52;0.52;;;;;;;2.98;80.68;101010.03;5129648;28;20177;-79
2023/03/15 06:43:47;;;;;;;0.63;0.63;;;;;;;3.04;80.01;101006.63;5128811;28;20541;-79
2023/03/15 06:46:17;;;;;;;0.60;0.60;;;;;;;3.10;80.25;101011.88;5131517;28;20038;-79
2023/03/15 06:48:48;;;;;;;1.42;1.33;;;;;;;3.18;79.97;101014.53;5128434;28;20544;-79
2023/03/15 06:51:18;;;;;;;0.40;0.40;;;;;;;3.15;79.93;101025.75;5150154;28;20038;-79
2023/03/15 06:53:49;;;;;;;0.40;0.40;;;;;;;3.28;79.66;101028.44;5157586;28;20118;-79
2023/03/15 06:56:19;;;;;;;0.50;0.50;;;;;;;3.08;81.33;101030.88;5127284;28;20042;-79
2023/03/15 06:58:50;;;;;;;0.65;0.63;;;;;;;3.07;81.30;101042.09;5145223;28;20031;-79
2023/03/15 07:01:20;;;;;;;0.50;0.50;;;;;;;3.09;80.72;101041.28;5127938;28;20046;-79
2023/03/15 07:03:51;;;;;;;0.30;0.30;;;;;;;2.74;83.77;101049.56;5158410;28;20031;-79
2023/03/15 07:06:21;;;;;;;0.45;0.45;;;;;;;2.52;85.32;101059.66;5145581;28;20053;-79
2023/03/15 07:08:52;;;;;;;2.38;1.15;;;;;;;2.97;82.51;101062.75;5147087;28;20031;-79
2023/03/15 07:11:22;;;;;;;0.38;0.38;;;;;;;3.12;82.57;101072.38;5128262;28;21625;-80
2023/03/15 07:13:53;;;;;;;0.40;0.40;;;;;;;3.21;81.01;101071.63;5126229;28;20076;-80
2023/03/15 07:16:24;;;;;;;0.65;0.65;;;;;;;3.29;80.69;101074.25;5164008;28;20039;-80
2023/03/15 07:18:55;;;;;;;0.65;0.65;;;;;;;3.32;80.92;101079.50;5126206;28;20820;-80
2023/03/15 07:21:26;;;;;;;0.35;0.35;;;;;;;3.33;80.64;101082.94;5158137;28;20114;-80
2023/03/15 07:23:56;;;;;;;0.55;0.55;;;;;;;3.24;81.64;101084.59;5129994;28;20110;-80
2023/03/15 07:26:27;;;;;;;2.00;1.75;;;;;;;3.39;80.47;101091.66;5125447;28;20046;-79
2023/03/15 07:28:57;;;;;;;1.13;1.13;;;;;;;3.34;81.67;101089.88;5144536;28;20086;-80
2023/03/15 07:31:28;;;;;;;0.70;0.70;;;;;;;3.26;81.70;101101.03;5126193;28;20112;-81
2023/03/15 07:33:58;;;;;;;0.30;0.30;;;;;;;3.38;81.53;101105.47;5144133;28;20030;-80
2023/03/15 07:36:31;;;;;;;0.70;0.57;;;;;;;3.29;82.26;101106.28;5128392;28;20046;-79
2023/03/15 07:39:01;;;;;;;10.30;2.70;;;;;;;3.14;83.92;101107.00;5134518;28;20034;-79
2023/03/15 07:41:32;;;;;;;0.55;0.55;;;;;;;3.23;83.24;101105.34;5112787;28;20193;-80
2023/03/15 07:44:02;;;;;;;0.75;0.75;;;;;;;3.10;84.08;101109.53;5131311;28;20121;-81
2023/03/15 07:46:33;;;;;;;0.40;0.40;;;;;;;3.20;83.92;101120.84;5143467;28;20039;-81
2023/03/15 07:49:03;;;;;;;0.63;0.63;;;;;;;3.19;84.42;101122.59;5142158;28;20039;-80
2023/03/15 07:51:34;;;;;;;1.38;1.27;;;;;;;3.31;82.40;101122.69;5131422;28;20050;-80
2023/03/15 07:54:04;;;;;;;0.40;0.40;;;;;;;3.15;82.65;101129.47;5124109;28;20054;-80
2023/03/15 07:56:35;;;;;;;1.15;1.08;;;;;;;3.41;81.93;101135.75;5121847;28;20091;-80
2023/03/15 07:59:05;;;;;;;0.73;0.73;;;;;;;3.44;81.50;101141.84;5109154;28;20031;-80
2023/03/15 08:01:36;;;;;;;0.70;0.70;;;;;;;3.28;82.32;101150.34;5146381;28;20112;-80
2023/03/15 08:04:06;;;;;;;0.80;0.80;;;;;;;3.54;81.28;101152.31;5128810;28;20045;-80
2023/03/15 08:06:37;;;;;;;0.40;0.40;;;;;;;3.60;81.99;101158.44;5126697;28;20051;-80
2023/03/15 08:09:07;;;;;;;0.60;0.60;;;;;;;3.26;82.65;101152.91;5140063;28;20567;-79
2023/03/15 08:11:38;;;;;;;0.80;0.80;;;;;;;3.53;82.22;101158.34;5117848;28;20397;-79
2023/03/15 08:14:08;;;;;;;0.63;0.63;;;;;;;3.62;81.56;101172.28;5121236;28;20034;-77
2023/03/15 08:16:39;;;;;;;0.50;0.50;;;;;;;3.66;81.68;101161.91;5108985;28;20383;-79
2023/03/15 08:19:09;;;;;;;0.60;0.60;;;;;;;3.65;81.67;101166.25;5127614;28;20037;-79
2023/03/15 08:21:44;;;;;;;0.60;0.60;;;;;;;3.73;82.60;101169.78;5125104;28;20053;-79
2023/03/15 08:24:14;;;;;;;0.50;0.50;;;;;;;3.77;82.02;101168.94;5129061;28;20034;-78
2023/03/15 08:26:45;;;;;;;0.85;0.85;;;;;;;3.89;81.59;101175.09;5133038;28;20696;-81
2023/03/15 08:29:15;;;;;;;0.82;0.82;;;;;;;3.81;82.65;101185.41;5125295;28;20045;-80
2023/03/15 08:31:45;;;;;;;1.55;0.88;;;;;;;3.82;82.28;101184.56;5157334;28;20046;-80
2023/03/15 08:34:16;;;;;;;0.73;0.73;;;;;;;4.02;80.84;101199.44;5125595;28;20168;-78
2023/03/15 08:36:47;;;;;;;2.95;2.70;;;;;;;4.05;80.73;101202.91;5124151;28;20041;-80
2023/03/15 08:39:17;;;;;;;1.65;1.30;;;;;;;4.12;80.42;101205.56;5144732;28;20070;-80
2023/03/15 08:41:49;;;;;;;0.40;0.40;;;;;;;4.04;80.92;101213.31;5145491;28;20811;-80
2023/03/15 08:44:19;;;;;;;0.65;0.65;;;;;;;4.25;80.20;101216.03;5115554;28;20186;-81
2023/03/15 08:46:50;;;;;;;0.32;0.32;;;;;;;4.35;78.96;101223.91;5154149;28;20081;-80
2023/03/15 08:49:20;;;;;;;0.88;0.82;;;;;;;4.18;80.35;101236.75;5137012;28;20035;-80
2023/03/15 08:51:50;;;;;;;0.40;0.40;;;;;;;4.20;80.21;101235.03;5164968;28;20035;-80
2023/03/15 08:54:22;;;;;;;0.80;0.80;;;;;;;4.29;80.53;101245.50;5157089;28;20034;-80
2023/03/15 08:56:52;;;;;;;0.60;0.60;;;;;;;4.37;80.35;101241.25;5176783;28;20049;-81
2023/03/15 08:59:23;;;;;;;1.10;1.10;;;;;;;4.35;80.26;101237.75;5154462;28;20030;-81
2023/03/15 09:01:53;;;;;;;0.30;0.30;;;;;;;4.36;79.42;101249.88;5124827;28;20053;-81
2023/03/15 09:04:24;;;;;;;0.40;0.40;;;;;;;4.30;78.11;101247.25;5133515;28;20031;-80
2023/03/15 09:06:54;;;;;;;1.58;1.48;;;;;;;4.39;78.81;101244.72;5126223;28;20575;-80
2023/03/15 09:09:26;;;;;;;1.15;1.15;;;;;;;4.55;78.36;101250.03;5127228;28;20046;-81
2023/03/15 09:11:56;;;;;;;0.73;0.73;;;;;;;4.35;77.41;101255.94;5141516;28;20055;-81
2023/03/15 09:14:27;;;;;;;0.40;0.40;;;;;;;4.57;76.98;101256.09;5108309;28;20709;-80
2023/03/15 09:16:57;;;;;;;0.63;0.63;;;;;;;4.63;76.10;101253.53;5124227;28;20069;-81
2023/03/15 09:19:27;;;;;;;2.13;1.75;;;;;;;4.60;75.30;101263.91;5139160;28;20035;-80
2023/03/15 09:21:58;;;;;;;1.23;1.13;;;;;;;4.71;76.03;101246.66;5124675;28;20045;-80
2023/03/15 09:24:28;;;;;;;2.60;2.05;;;;;;;4.72;76.30;101253.59;5120698;28;20022;-81
2023/03/15 09:26:59;;;;;;;0.57;0.57;;;;;;;4.71;75.46;101256.19;5155229;28;20030;-80
2023/03/15 09:29:29;;;;;;;0.35;0.35;;;;;;;4.49;74.23;101262.97;5141591;28;20034;-80
2023/03/15 09:32:00;;;;;;;0.30;0.30;;;;;;;4.72;76.35;101256.19;5123800;28;20041;-81
2023/03/15 09:34:31;;;;;;;0.30;0.30;;;;;;;4.73;75.77;101257.94;5126601;28;20162;-81
2023/03/15 09:37:02;;;;;;;0.57;0.57;;;;;;;4.73;75.25;101259.66;5126457;28;20167;-80
2023/03/15 09:39:32;;;;;;;0.40;0.40;;;;;;;4.79;75.18;101262.31;5139062;28;20108;-80
2023/03/15 09:42:15;;;;;;;0.50;0.50;;;;;;;4.71;74.74;101264.84;5123774;28;20034;-82
2023/03/15 09:44:58;;;;;;;0.50;0.50;;;;;;;4.83;75.04;101266.66;5136243;28;20126;-81
2023/03/15 09:47:50;;;;;;;0.40;0.40;;;;;;;4.78;74.87;101260.56;5142865;28;20042;-80
2023/03/15 09:50:30;;;;;;;0.47;0.47;;;;;;;4.69;74.72;101261.38;5143909;28;20053;-81
2023/03/15 09:53:13;;;;;;;0.60;0.60;;;;;;;4.57;74.87;101266.50;5130690;28;20027;-79
2023/03/15 09:55:47;;;;;;;0.95;0.95;;;;;;;4.80;75.12;101260.56;5142007;28;20105;-80
2023/03/15 09:58:25;;;;;;;0.63;0.63;;;;;;;4.79;75.15;101266.63;5135817;28;20035;-80
2023/03/15 10:01:01;;;;;;;0.52;0.52;;;;;;;4.88;75.64;101264.06;5130662;28;20120;-81
2023/03/15 10:03:48;;;;;;;0.55;0.55;;;;;;;4.91;75.69;101269.31;5137605;28;20053;-80
2023/03/15 10:06:29;;;;;;;0.63;0.63;;;;;;;4.74;73.31;101266.59;5146780;28;20034;-81
2023/03/15 10:09:03;;;;;;;0.80;0.80;;;;;;;5.06;74.16;101262.44;5125435;28;20031;-81
2023/03/15 10:11:39;;;;;;;0.40;0.40;;;;;;;5.08;74.70;101263.31;5151409;28;20035;-81
2023/03/15 10:14:32;;;;;;;0.82;0.82;;;;;;;4.86;73.23;101269.28;5151477;28;20035;-80
2023/03/15 10:17:10;;;;;;;0.30;0.30;;;;;;;4.85;72.14;101272.72;5127365;28;20034;-80
2023/03/15 10:20:00;;;;;;;0.30;0.30;;;;;;;4.77;72.53;101266.63;5141622;28;20093;-80
2023/03/15 10:22:43;;;;;;;3.50;1.58;;;;;;;4.84;72.50;101270.09;5137564;28;20065;-80
2023/03/15 10:25:25;;;;;;;0.73;0.73;;;;;;;4.88;72.50;101270.13;5123573;28;20039;-80
2023/03/15 10:28:12;;;;;;;0.40;0.40;;;;;;;5.03;72.04;101277.16;5125583;28;20415;-80
2023/03/15 10:30:47;;;;;;;0.45;0.45;;;;;;;5.09;71.78;101272.81;5169418;28;20038;-80
2023/03/15 10:33:31;;;;;;;0.60;0.60;;;;;;;5.13;71.87;101278.06;5133103;28;20031;-80
2023/03/15 10:36:20;;;;;;;0.50;0.50;;;;;;;5.09;74.02;101278.91;5144480;28;20094;-80
2023/03/15 10:38:51;;;;;;;0.88;0.88;;;;;;;5.16;73.83;101285.03;5148670;28;20054;-79
2023/03/15 10:41:37;;;;;;;0.80;0.80;;;;;;;5.15;73.30;101278.94;5145676;28;20514;-80
2023/03/15 10:44:21;;;;;;;0.73;0.73;;;;;;;5.24;72.07;101270.31;5137196;28;20035;-79
2023/03/15 10:47:12;;;;;;;;;;;;;;;5.19;72.21;101269.41;5161164;28;20494;-79
2023/03/15 10:49:43;;;;;;;0.40;0.40;;;;;;;5.21;67.49;101278.09;5159647;28;19910;-80
2023/03/15 10:52:56;;;;;;;0.90;0.90;;;;;;;5.40;71.24;101283.38;5139650;28;20023;-80
2023/03/15 10:55:34;;;;;;;0.30;0.30;;;;;;;5.48;71.07;101277.31;5148214;28;20675;-81
2023/03/15 10:58:13;;;;;;;2.17;1.67;;;;;;;5.63;70.73;101281.69;5148438;28;20137;-81
2023/03/15 11:00:50;;;;;;;0.30;0.30;;;;;;;5.54;68.98;101276.47;5127482;28;20046;-80
2023/03/15 11:03:22;;;;;;;0.60;0.60;;;;;;;5.66;69.59;101286.91;5131045;28;20041;-80
2023/03/15 11:05:56;;;;;;;0.40;0.40;;;;;;;5.60;66.88;101292.09;5143529;28;20038;-80
2023/03/15 11:08:40;;;;;;;0.38;0.38;;;;;;;5.71;68.31;101289.50;5145077;28;20058;-81
2023/03/15 11:11:11;;;;;;;1.63;1.52;;;;;;;5.89;69.99;101285.22;5148243;28;20452;-80
2023/03/15 11:13:57;;;;;;;0.57;0.57;;;;;;;5.98;69.93;101293.03;5130929;28;20121;-80
2023/03/15 11:16:33;;;;;;;0.30;0.30;;;;;;;5.91;65.04;101292.16;5147826;28;20050;-81
2023/03/15 11:19:14;;;;;;;0.30;0.30;;;;;;;5.98;62.99;101296.53;5149392;28;20161;-80
2023/03/15 11:21:46;;;;;;;1.00;0.95;;;;;;;6.09;64.86;101299.19;5131247;28;20048;-80
2023/03/15 11:24:26;;;;;;;0.40;0.40;;;;;;;6.20;66.03;101312.19;5138908;28;20780;-80
2023/03/15 11:27:00;;;;;;;1.63;1.13;;;;;;;6.22;65.29;101318.28;5115997;28;20074;-80
2023/03/15 11:29:33;;;;;;;0.43;0.43;;;;;;;6.14;64.22;101314.81;5143582;28;20061;-80
2023/03/15 11:32:14;;;;;;;0.85;0.77;;;;;;;6.20;65.49;101312.19;5128865;28;20445;-80
2023/03/15 11:35:04;;;;;;;0.70;0.70;;;;;;;6.18;63.36;101308.72;5147610;28;20073;-81
2023/03/15 11:37:54;;;;;;;0.50;0.50;;;;;;;6.38;63.61;101307.88;5154338;28;20035;-80
2023/03/15 11:40:42;;;;;;;0.40;0.40;;;;;;;6.44;63.25;101313.97;5134280;28;20045;-80
2023/03/15 11:43:35;;;;;;;0.30;0.30;;;;;;;6.65;63.96;101309.56;5143516;28;20026;-80
2023/03/15 11:46:18;;;;;;;0.38;0.38;;;;;;;6.54;62.51;101313.91;5138660;28;20105;-80
2023/03/15 11:49:08;;;;;;;0.70;0.70;;;;;;;6.44;59.28;101320.88;5144474;28;20031;-81
2023/03/15 11:51:38;;;;;;;0.30;0.30;;;;;;;6.59;61.44;101325.25;5152270;28;20042;-80
2023/03/15 11:54:14;;;;;;;0.55;0.55;;;;;;;6.64;61.09;101325.22;5144977;28;20034;-80
2023/03/15 11:57:00;;;;;;;0.35;0.35;;;;;;;6.59;57.77;101328.69;5132379;28;20583;-80
2023/03/15 11:59:37;;;;;;;0.30;0.30;;;;;;;6.54;57.81;101330.44;5126527;28;20121;-81
2023/03/15 12:02:08;;;;;;;0.70;0.70;;;;;;;6.70;62.97;101330.44;5134947;28;20030;-81